Valparaiso, FL

8:10 AM CST on December 29, 2014 (GMT -0600)
Eglin Air Force Base | Change Station
CLOSE
Current Station
Airport
Location: Valparaiso,
Elevation: 85 ft
Nearby Weather Stations

Elev 85 ft 30.48 °N, 86.53 °W | Updated 15 minutes ago

Light Rain
Light Rain
60 °F
Feels Like 60 °F
N
2
Wind Variable Wind from South

Today
High -- | Low -- °F
--% Chance of Precip.
Yesterday
High -- | Low -- °F
Precip. -- in
6:42 AM 4:54 PM
First Quarter, 59% visible
Pressure 30.11 in
Visibility 6.0 miles
Clouds Mostly Cloudy 600 ft
Overcast 5000 ft
Dew Point 59 °F
Humidity 96%
Rainfall 0.55 in
Snow Depth Not available.
UV 0 out of 12
Pollen 2.70 out of 12
Air Quality Not available.
Flu Activity Not available.
METAR KVPS 291355Z 17002KT 6SM -RA BKN006 OVC050 16/15 A3009 RMK AO2A SLP196 P0003 T01550149 $

More Conditions Fewer Conditions

Pressure 30.11 in
Visibility 6.0 miles
Clouds Mostly Cloudy 600 ft
Overcast 5000 ft
Dew Point 59 °F
Humidity 96%
Rainfall 0.55 in
Snow Depth Not available.
UV 0 out of 12
Pollen 2.70 out of 12
Air Quality Not available.
Flu Activity Not available.
METAR KVPS 291355Z 17002KT 6SM -RA BKN006 OVC050 16/15 A3009 RMK AO2A SLP196 P0003 T01550149 $

More Conditions Fewer Conditions

10-Day Weather Forecast

Almanac

Astronomy

Dec. 29, 2014 Rise Set
Actual Time
Civil Twilight
Nautical Twilight
Astronomical Twilight
Moon
Length of Visible Light
Length of Day
Tomorrow will be .
, % of the Moon is Illuminated

Today's Extremes

State Highs State Lows

Community

WunderPhotos

Upload Photos

1,781,587 photos uploaded!

WunderBlogs® & News

Nearby

Air Quality

  Air Quality AQ Index Pollutant
Not available.

Snow Depth

Station Depth Elevation

Earthquake Activity

City Distance Mag. Time & Date
Minimum magnitude displayed is 2.5.

Coastal Water Temperatures

Place Temperature

Nearby Weather Stations